createdAt,value
2023-02-13T00:01:30.521Z,2.80
2023-02-13T00:04:00.602Z,3.10
2023-02-13T00:06:29.753Z,3.50
2023-02-13T00:08:58.399Z,3.00
2023-02-13T00:11:30.126Z,3.00
2023-02-13T00:13:59.183Z,3.30
2023-02-13T00:16:28.287Z,2.50
2023-02-13T00:19:03.606Z,2.50
2023-02-13T00:21:36.460Z,2.10
2023-02-13T00:24:06.424Z,2.60
2023-02-13T00:26:35.169Z,2.20
2023-02-13T00:29:04.378Z,2.30
2023-02-13T00:31:33.547Z,1.90
2023-02-13T00:34:02.182Z,2.10
2023-02-13T00:36:30.957Z,2.10
2023-02-13T00:38:59.425Z,1.60
2023-02-13T00:41:28.042Z,2.50
2023-02-13T00:43:56.684Z,4.90
2023-02-13T00:46:25.243Z,3.20
2023-02-13T00:48:54.664Z,2.50
2023-02-13T00:51:23.620Z,2.30
2023-02-13T00:53:52.993Z,2.10
2023-02-13T00:56:21.432Z,2.60
2023-02-13T00:58:50.174Z,3.00
2023-02-13T01:01:18.877Z,3.70
2023-02-13T01:03:47.561Z,3.00
2023-02-13T01:06:16.526Z,3.00
2023-02-13T01:08:45.273Z,3.50
2023-02-13T01:11:13.971Z,3.40
2023-02-13T01:13:43.123Z,3.40
2023-02-13T01:16:18.198Z,2.20
2023-02-13T01:18:47.111Z,3.20
2023-02-13T01:21:17.790Z,2.30
2023-02-13T01:23:49.088Z,3.30
2023-02-13T01:26:24.376Z,2.10
2023-02-13T01:28:55.027Z,2.10
2023-02-13T01:31:26.917Z,2.70
2023-02-13T01:33:58.961Z,1.80
2023-02-13T01:36:27.729Z,3.50
2023-02-13T01:38:58.162Z,3.00
2023-02-13T01:41:27.669Z,2.70
2023-02-13T01:44:00.310Z,2.80
2023-02-13T01:46:43.231Z,2.60
2023-02-13T01:49:19.914Z,2.70
2023-02-13T01:51:51.227Z,3.30
2023-02-13T01:54:31.585Z,3.70
2023-02-13T01:57:16.581Z,3.60
2023-02-13T01:59:48.831Z,3.80
2023-02-13T02:02:17.527Z,3.40
2023-02-13T02:04:46.821Z,3.20
2023-02-13T02:07:25.099Z,4.50
2023-02-13T02:09:59.054Z,3.60
2023-02-13T02:12:38.586Z,4.60
2023-02-13T02:15:08.697Z,3.60
2023-02-13T02:17:39.785Z,2.60
2023-02-13T02:20:30.341Z,2.00
2023-02-13T02:23:26.833Z,2.40
2023-02-13T02:26:25.522Z,2.70
2023-02-13T02:29:24.356Z,2.00
2023-02-13T02:32:22.773Z,2.30
2023-02-13T02:35:13.132Z,2.70
2023-02-13T02:37:57.949Z,2.30
2023-02-13T02:41:04.924Z,3.50
2023-02-13T02:43:59.169Z,2.20
2023-02-13T02:46:33.517Z,5.50
2023-02-13T02:49:26.100Z,4.50
2023-02-13T02:51:55.138Z,4.90
2023-02-13T02:54:47.185Z,6.00
2023-02-13T02:57:18.480Z,4.00
2023-02-13T03:00:07.351Z,5.40
2023-02-13T03:02:55.576Z,14.30
2023-02-13T03:05:59.307Z,4.70
2023-02-13T03:08:48.009Z,3.60
2023-02-13T03:11:35.262Z,3.50
2023-02-13T03:14:04.206Z,3.00
2023-02-13T03:16:52.314Z,2.80
2023-02-13T03:19:53.546Z,2.60
2023-02-13T03:22:25.424Z,2.10
2023-02-13T03:25:05.082Z,2.30
2023-02-13T03:28:27.698Z,2.10
2023-02-13T03:31:09.174Z,2.00
2023-02-13T03:33:43.954Z,2.80
2023-02-13T03:36:52.445Z,2.70
2023-02-13T03:39:50.057Z,1.60
2023-02-13T03:42:24.478Z,2.30
2023-02-13T03:45:22.524Z,2.30
2023-02-13T03:47:53.320Z,2.20
2023-02-13T03:50:21.746Z,2.40
2023-02-13T03:53:04.318Z,2.00
2023-02-13T03:55:56.776Z,2.00
2023-02-13T03:58:53.029Z,2.70
2023-02-13T04:01:23.133Z,2.10
2023-02-13T04:03:51.544Z,2.60
2023-02-13T04:06:22.169Z,2.00
2023-02-13T04:08:50.578Z,2.70
2023-02-13T04:11:31.094Z,8.00
2023-02-13T04:14:11.271Z,4.80
2023-02-13T04:16:44.445Z,5.40
2023-02-13T04:19:13.208Z,7.70
2023-02-13T04:21:41.955Z,8.30
2023-02-13T04:24:11.630Z,7.50
2023-02-13T04:26:41.355Z,7.00
2023-02-13T04:29:10.242Z,5.40
2023-02-13T04:31:40.779Z,4.80
2023-02-13T04:34:09.623Z,4.40
2023-02-13T04:36:38.134Z,4.50
2023-02-13T04:39:06.659Z,6.40
2023-02-13T04:41:35.138Z,5.60
2023-02-13T04:44:03.818Z,4.60
2023-02-13T04:46:32.527Z,4.70
2023-02-13T04:49:01.753Z,3.90
2023-02-13T04:51:30.411Z,3.30
2023-02-13T04:53:58.858Z,3.50
2023-02-13T04:56:27.314Z,3.00
2023-02-13T04:58:56.590Z,2.90
2023-02-13T05:01:25.019Z,3.10
2023-02-13T05:03:53.803Z,3.30
2023-02-13T05:06:22.516Z,2.60
2023-02-13T05:08:50.959Z,9.10
2023-02-13T05:11:19.420Z,21.40
2023-02-13T05:13:51.483Z,12.20
2023-02-13T05:16:20.135Z,13.40
2023-02-13T05:18:48.957Z,13.60
2023-02-13T05:21:35.856Z,9.30
2023-02-13T05:24:06.269Z,7.20
2023-02-13T05:26:34.736Z,6.20
2023-02-13T05:29:18.983Z,6.60
2023-02-13T05:31:48.837Z,5.40
2023-02-13T05:34:17.591Z,6.30
2023-02-13T05:36:46.201Z,3.70
2023-02-13T05:39:15.649Z,3.90
2023-02-13T05:41:44.814Z,4.30
2023-02-13T05:44:13.916Z,8.60
2023-02-13T05:46:43.024Z,8.30
2023-02-13T05:49:13.110Z,11.00
2023-02-13T05:51:43.042Z,14.90
2023-02-13T05:54:11.635Z,8.30
2023-02-13T05:56:40.265Z,7.40
2023-02-13T05:59:08.829Z,6.00
2023-02-13T06:01:38.826Z,4.20
2023-02-13T06:04:07.282Z,4.80
2023-02-13T06:06:36.133Z,4.10
2023-02-13T06:09:04.812Z,3.30
2023-02-13T06:11:33.307Z,4.20
2023-02-13T06:14:02.038Z,5.10
2023-02-13T06:16:32.000Z,8.90
2023-02-13T06:19:01.223Z,7.70
2023-02-13T06:21:30.182Z,4.90
2023-02-13T06:23:58.968Z,3.50
2023-02-13T06:26:28.210Z,4.30
2023-02-13T06:28:57.282Z,4.70
2023-02-13T06:31:30.956Z,3.60
2023-02-13T06:34:00.871Z,3.80
2023-02-13T06:36:30.440Z,4.40
2023-02-13T06:38:59.412Z,4.40
2023-02-13T06:41:28.538Z,5.10
2023-02-13T06:44:00.591Z,4.90
2023-02-13T06:46:29.431Z,5.40
2023-02-13T06:48:58.215Z,5.10
2023-02-13T06:51:26.635Z,6.80
2023-02-13T06:53:55.075Z,6.70
2023-02-13T06:56:24.112Z,9.10
2023-02-13T06:58:53.438Z,6.10
2023-02-13T07:01:22.487Z,7.60
2023-02-13T07:03:51.075Z,6.80
2023-02-13T07:06:20.487Z,5.90
2023-02-13T07:08:51.725Z,5.70
2023-02-13T07:11:23.307Z,7.10
2023-02-13T07:13:52.684Z,4.80
2023-02-13T07:16:26.687Z,5.80
2023-02-13T07:18:56.002Z,5.30
2023-02-13T07:21:24.750Z,9.70
2023-02-13T07:23:53.265Z,3.60
2023-02-13T07:26:21.777Z,5.40
2023-02-13T07:28:59.456Z,3.50
2023-02-13T07:31:35.508Z,3.60
2023-02-13T07:34:05.491Z,3.90
2023-02-13T07:36:34.738Z,6.00
2023-02-13T07:39:03.955Z,7.90
2023-02-13T07:41:32.535Z,6.10
2023-02-13T07:44:00.996Z,3.90
2023-02-13T07:46:30.081Z,3.70
2023-02-13T07:48:59.411Z,3.10
2023-02-13T07:51:29.283Z,3.40
2023-02-13T07:53:57.828Z,7.40
2023-02-13T07:56:26.314Z,5.20
2023-02-13T07:58:55.539Z,6.00
2023-02-13T08:01:24.432Z,4.20
2023-02-13T08:03:53.037Z,4.00
2023-02-13T08:06:22.006Z,3.20
2023-02-13T08:09:10.475Z,3.20
2023-02-13T08:11:55.549Z,3.50
2023-02-13T08:14:43.995Z,14.30
2023-02-13T08:17:12.725Z,9.70
2023-02-13T08:19:41.505Z,6.20
2023-02-13T08:22:14.013Z,5.40
2023-02-13T08:24:45.938Z,5.80
2023-02-13T08:27:15.629Z,9.20
2023-02-13T08:29:44.178Z,9.30
2023-02-13T08:32:13.049Z,9.20
2023-02-13T08:34:42.933Z,15.20
2023-02-13T08:37:11.616Z,11.40
2023-02-13T08:39:40.779Z,16.90
2023-02-13T08:42:10.065Z,26.60
2023-02-13T08:44:42.850Z,16.80
2023-02-13T08:47:11.393Z,12.40
2023-02-13T08:49:40.293Z,7.30
2023-02-13T08:52:10.143Z,5.40
2023-02-13T08:54:38.923Z,7.70
2023-02-13T08:57:08.931Z,5.10
2023-02-13T08:59:37.540Z,4.80
2023-02-13T09:02:05.973Z,4.90
2023-02-13T09:04:34.914Z,4.70
2023-02-13T09:07:03.378Z,4.60
2023-02-13T09:09:33.550Z,4.70
2023-02-13T09:12:02.390Z,4.60
2023-02-13T09:14:31.386Z,4.70
2023-02-13T09:17:00.042Z,4.20
2023-02-13T09:19:28.556Z,5.00
2023-02-13T09:21:57.731Z,4.70
2023-02-13T09:24:26.751Z,6.30
2023-02-13T09:26:56.860Z,6.80
2023-02-13T09:29:25.658Z,6.30
2023-02-13T09:31:55.639Z,4.40
2023-02-13T09:34:24.644Z,4.90
2023-02-13T09:36:54.224Z,4.80
2023-02-13T09:39:22.946Z,5.20
2023-02-13T09:41:52.398Z,6.90
2023-02-13T09:44:35.971Z,5.50
2023-02-13T09:47:31.068Z,9.60
2023-02-13T09:50:03.729Z,10.70
2023-02-13T09:52:33.862Z,6.50
2023-02-13T09:55:02.956Z,5.70
2023-02-13T09:57:35.900Z,5.60
2023-02-13T10:00:13.565Z,4.60
2023-02-13T10:02:51.940Z,4.10
2023-02-13T10:05:30.064Z,6.00
2023-02-13T10:08:08.842Z,4.30
2023-02-13T10:10:57.166Z,4.40
2023-02-13T10:13:47.982Z,7.60
2023-02-13T10:16:21.525Z,4.80
2023-02-13T10:19:26.032Z,4.20
2023-02-13T10:21:59.689Z,4.10
2023-02-13T10:24:29.071Z,5.10
2023-02-13T10:26:58.487Z,5.70
2023-02-13T10:30:02.105Z,4.30
2023-02-13T10:32:36.321Z,5.30
2023-02-13T10:35:05.400Z,5.70
2023-02-13T10:37:33.890Z,8.80
2023-02-13T10:40:02.660Z,6.30
2023-02-13T10:42:36.487Z,4.10
2023-02-13T10:45:09.567Z,4.50
2023-02-13T10:47:47.811Z,5.10
2023-02-13T10:50:41.317Z,4.40
2023-02-13T10:53:24.748Z,5.00
2023-02-13T10:55:59.744Z,8.30
2023-02-13T10:58:53.807Z,7.60
2023-02-13T11:01:33.032Z,8.00
2023-02-13T11:04:08.005Z,10.30
2023-02-13T11:06:40.802Z,8.10
2023-02-13T11:09:09.683Z,8.10
2023-02-13T11:11:39.494Z,6.10
2023-02-13T11:14:17.543Z,5.10
2023-02-13T11:17:01.927Z,4.80
2023-02-13T11:19:35.310Z,4.30
2023-02-13T11:22:09.472Z,3.90
2023-02-13T11:25:04.323Z,5.10
2023-02-13T11:27:35.641Z,5.10
2023-02-13T11:30:28.459Z,10.40
2023-02-13T11:33:26.619Z,9.90
2023-02-13T11:36:22.283Z,7.30
2023-02-13T11:39:07.799Z,5.20
2023-02-13T11:41:41.102Z,7.90
2023-02-13T11:44:26.635Z,7.40
2023-02-13T11:46:59.245Z,4.60
2023-02-13T11:49:32.933Z,4.40
2023-02-13T11:52:02.990Z,10.70
2023-02-13T11:54:44.322Z,5.80
2023-02-13T11:57:20.544Z,6.80
2023-02-13T11:59:53.207Z,4.30
2023-02-13T12:02:29.696Z,4.60
2023-02-13T12:05:19.198Z,4.40
2023-02-13T12:07:48.863Z,5.20
2023-02-13T12:10:25.722Z,6.30
2023-02-13T12:12:56.461Z,5.00
2023-02-13T12:15:30.536Z,4.50
2023-02-13T12:18:21.623Z,5.60
2023-02-13T12:21:00.380Z,7.80
2023-02-13T12:23:57.685Z,9.20
2023-02-13T12:26:36.818Z,6.50
2023-02-13T12:29:24.846Z,5.30
2023-02-13T12:32:22.548Z,4.10
2023-02-13T12:35:09.353Z,3.70
2023-02-13T12:37:58.749Z,3.30
2023-02-13T12:41:08.356Z,4.10
2023-02-13T12:44:00.741Z,3.40
2023-02-13T12:46:55.553Z,7.30
2023-02-13T12:49:46.987Z,6.80
2023-02-13T12:52:22.603Z,5.50
2023-02-13T12:54:57.488Z,4.00
2023-02-13T12:57:47.291Z,3.40
2023-02-13T13:00:18.788Z,4.70
2023-02-13T13:03:18.413Z,4.00
2023-02-13T13:06:12.569Z,3.10
2023-02-13T13:09:05.794Z,5.00
2023-02-13T13:11:50.654Z,5.80
2023-02-13T13:14:54.459Z,4.40
2023-02-13T13:17:49.859Z,3.40
2023-02-13T13:20:45.985Z,3.80
2023-02-13T13:23:22.975Z,4.10
2023-02-13T13:26:25.457Z,9.10
2023-02-13T13:28:56.087Z,10.50
2023-02-13T13:31:28.033Z,18.10
2023-02-13T13:34:04.177Z,18.50
2023-02-13T13:36:57.139Z,7.70
2023-02-13T13:39:29.305Z,4.40
2023-02-13T13:42:24.750Z,3.60
2023-02-13T13:45:11.775Z,4.00
2023-02-13T13:47:58.222Z,4.40
2023-02-13T13:50:31.120Z,4.60
2023-02-13T13:53:15.110Z,4.60
2023-02-13T13:55:58.644Z,4.90
2023-02-13T13:58:49.739Z,3.90
2023-02-13T14:01:27.557Z,4.40
2023-02-13T14:04:06.394Z,4.50
2023-02-13T14:06:44.833Z,4.60
2023-02-13T14:09:40.558Z,4.70
2023-02-13T14:12:24.720Z,5.00
2023-02-13T14:14:53.974Z,4.80
2023-02-13T14:17:44.448Z,4.90
2023-02-13T14:20:44.435Z,4.20
2023-02-13T14:23:25.255Z,3.70
2023-02-13T14:26:22.020Z,4.00
2023-02-13T14:28:50.488Z,3.60
2023-02-13T14:31:43.296Z,3.70
2023-02-13T14:34:12.325Z,3.20
2023-02-13T14:36:43.460Z,3.70
2023-02-13T14:39:24.305Z,5.10
2023-02-13T14:41:55.560Z,4.80
2023-02-13T14:44:47.008Z,5.40
2023-02-13T14:47:29.448Z,4.80
2023-02-13T14:49:58.620Z,5.20
2023-02-13T14:52:43.289Z,4.60
2023-02-13T14:55:36.853Z,4.60
2023-02-13T14:58:20.260Z,4.30
2023-02-13T15:01:37.018Z,6.90
2023-02-13T15:04:11.326Z,6.60
2023-02-13T15:06:42.720Z,5.30
2023-02-13T15:09:28.337Z,6.10
2023-02-13T15:11:57.064Z,13.60
2023-02-13T15:14:26.347Z,8.40
2023-02-13T15:16:58.659Z,6.10
2023-02-13T15:19:28.598Z,5.90
2023-02-13T15:21:59.231Z,4.70
2023-02-13T15:24:43.778Z,4.30
2023-02-13T15:27:17.336Z,4.00
2023-02-13T15:30:02.276Z,4.60
2023-02-13T15:32:37.178Z,3.80
2023-02-13T15:35:28.119Z,3.50
2023-02-13T15:37:56.835Z,3.70
2023-02-13T15:40:33.589Z,3.90
2023-02-13T15:43:02.902Z,4.10
2023-02-13T15:45:34.146Z,3.80
2023-02-13T15:48:03.531Z,4.60
2023-02-13T15:50:34.690Z,4.40
2023-02-13T15:53:04.859Z,4.40
2023-02-13T15:55:34.192Z,4.50
2023-02-13T15:58:02.696Z,3.70
2023-02-13T16:00:34.040Z,4.10
2023-02-13T16:03:04.154Z,4.40
2023-02-13T16:05:40.425Z,4.90
2023-02-13T16:08:29.974Z,4.20
2023-02-13T16:11:17.121Z,4.40
2023-02-13T16:14:10.911Z,3.70
2023-02-13T16:16:44.866Z,4.40
2023-02-13T16:19:24.452Z,3.70
2023-02-13T16:21:53.125Z,5.00
2023-02-13T16:24:21.977Z,4.40
2023-02-13T16:26:51.047Z,5.20
2023-02-13T16:29:26.061Z,5.20
2023-02-13T16:32:05.088Z,4.80
2023-02-13T16:34:33.505Z,6.10
2023-02-13T16:37:02.191Z,4.90
2023-02-13T16:39:33.197Z,4.70
2023-02-13T16:42:01.792Z,5.60
2023-02-13T16:44:31.821Z,5.90
2023-02-13T16:47:04.554Z,5.70
2023-02-13T16:49:37.089Z,5.10
2023-02-13T16:52:19.078Z,3.90
2023-02-13T16:54:49.941Z,5.00
2023-02-13T16:57:34.326Z,4.70
2023-02-13T17:00:05.491Z,4.90
2023-02-13T17:02:38.543Z,5.10
2023-02-13T17:07:48.499Z,4.80
2023-02-13T17:10:31.594Z,5.00
2023-02-13T17:13:02.762Z,4.90
2023-02-13T17:15:31.965Z,4.90
2023-02-13T17:18:04.456Z,4.80
2023-02-13T17:20:34.612Z,5.20
2023-02-13T17:23:05.526Z,5.00
2023-02-13T17:25:37.790Z,4.60
2023-02-13T17:28:17.811Z,4.90
2023-02-13T17:30:46.340Z,4.90
2023-02-13T17:33:28.028Z,5.10
2023-02-13T17:35:57.632Z,5.30
2023-02-13T17:38:26.192Z,4.50
2023-02-13T17:40:55.103Z,4.90
2023-02-13T17:43:25.535Z,4.90
2023-02-13T17:45:54.487Z,4.50
2023-02-13T17:48:24.314Z,4.60
2023-02-13T17:50:53.317Z,5.20
2023-02-13T17:53:25.237Z,4.90
2023-02-13T17:55:56.960Z,5.90
2023-02-13T17:58:25.720Z,5.80
2023-02-13T18:00:54.517Z,5.50
2023-02-13T18:03:23.347Z,5.60
2023-02-13T18:05:54.036Z,5.80
2023-02-13T18:08:22.582Z,5.60
2023-02-13T18:10:53.193Z,5.60
2023-02-13T18:13:22.228Z,5.20
2023-02-13T18:15:51.092Z,5.30
2023-02-13T18:18:21.159Z,5.60
2023-02-13T18:20:55.806Z,5.80
2023-02-13T18:23:26.575Z,6.20
2023-02-13T18:25:57.924Z,6.60
2023-02-13T18:28:28.320Z,7.50
2023-02-13T18:30:57.829Z,6.30
2023-02-13T18:33:26.724Z,6.20
2023-02-13T18:36:00.601Z,5.90
2023-02-13T18:38:29.391Z,5.60
2023-02-13T18:40:58.793Z,7.20
2023-02-13T18:43:27.737Z,6.60
2023-02-13T18:45:57.243Z,6.70
2023-02-13T18:48:31.590Z,7.70
2023-02-13T18:51:01.446Z,7.50
2023-02-13T18:53:30.152Z,6.20
2023-02-13T18:56:01.585Z,6.90
2023-02-13T18:58:31.226Z,8.20
2023-02-13T19:01:07.001Z,8.10
2023-02-13T19:03:37.175Z,6.60
2023-02-13T19:06:08.280Z,7.40
2023-02-13T19:08:37.027Z,7.30
2023-02-13T19:11:07.919Z,7.60
2023-02-13T19:13:37.104Z,8.20
2023-02-13T19:16:09.069Z,7.60
2023-02-13T19:18:39.754Z,8.00
2023-02-13T19:21:08.418Z,8.30
2023-02-13T19:23:40.159Z,9.30
2023-02-13T19:26:11.094Z,8.20
2023-02-13T19:28:40.473Z,7.80
2023-02-13T19:31:16.587Z,8.20
2023-02-13T19:33:45.667Z,8.80
2023-02-13T19:36:19.828Z,7.80
2023-02-13T19:38:48.906Z,7.60
2023-02-13T19:41:17.839Z,8.20
2023-02-13T19:43:51.081Z,7.40
2023-02-13T19:46:24.070Z,8.70
2023-02-13T19:48:52.997Z,9.20
2023-02-13T19:51:24.471Z,8.50
2023-02-13T19:53:57.845Z,8.60
2023-02-13T19:56:27.460Z,7.50
2023-02-13T19:58:56.112Z,8.10
2023-02-13T20:01:26.708Z,8.90
2023-02-13T20:03:55.806Z,8.30
2023-02-13T20:06:28.479Z,8.20
2023-02-13T20:09:01.858Z,8.60
2023-02-13T20:11:30.854Z,8.90
2023-02-13T20:14:04.263Z,7.80
2023-02-13T20:16:35.699Z,9.10
2023-02-13T20:19:11.735Z,8.40
2023-02-13T20:21:41.806Z,8.30
2023-02-13T20:24:10.596Z,8.00
2023-02-13T20:26:39.832Z,9.30
2023-02-13T20:29:09.871Z,9.90
2023-02-13T20:31:41.606Z,9.10
2023-02-13T20:34:10.785Z,9.50
2023-02-13T20:36:39.405Z,8.40
2023-02-13T20:39:09.250Z,8.70
2023-02-13T20:41:37.947Z,8.50
2023-02-13T20:44:08.483Z,8.60
2023-02-13T20:46:38.590Z,9.80
2023-02-13T20:49:07.240Z,8.90
2023-02-13T20:51:38.043Z,8.80
2023-02-13T20:54:06.547Z,9.10
2023-02-13T20:56:36.519Z,8.90
2023-02-13T20:59:05.690Z,8.00
2023-02-13T21:01:40.670Z,9.00
2023-02-13T21:04:11.461Z,8.80
2023-02-13T21:06:40.405Z,8.10
2023-02-13T21:09:10.153Z,9.40
2023-02-13T21:11:43.091Z,10.20
2023-02-13T21:14:12.027Z,9.70
2023-02-13T21:16:41.465Z,8.80
2023-02-13T21:19:16.414Z,8.40
2023-02-13T21:21:45.566Z,8.40
2023-02-13T21:24:19.511Z,8.90
2023-02-13T21:26:50.651Z,8.80
2023-02-13T21:29:20.473Z,7.80
2023-02-13T21:31:49.217Z,9.20
2023-02-13T21:34:17.938Z,9.00
2023-02-13T21:36:48.811Z,7.90
2023-02-13T21:39:17.424Z,7.80
2023-02-13T21:41:46.356Z,7.60
2023-02-13T21:44:15.701Z,7.90
2023-02-13T21:46:45.452Z,6.90
2023-02-13T21:49:16.681Z,7.30
2023-02-13T21:51:45.769Z,7.40
2023-02-13T21:54:34.175Z,7.80
2023-02-13T21:57:02.769Z,7.50
2023-02-13T21:59:33.265Z,7.10
2023-02-13T22:02:02.980Z,7.00
2023-02-13T22:04:31.838Z,7.70
2023-02-13T22:07:00.349Z,8.40
2023-02-13T22:09:30.164Z,6.60
2023-02-13T22:11:58.597Z,7.30
2023-02-13T22:14:27.993Z,6.60
2023-02-13T22:16:57.354Z,6.70
2023-02-13T22:19:26.596Z,6.70
2023-02-13T22:21:55.173Z,7.10
2023-02-13T22:24:23.945Z,7.60
2023-02-13T22:26:52.570Z,8.60
2023-02-13T22:29:23.365Z,8.70
2023-02-13T22:31:52.272Z,8.00
2023-02-13T22:34:20.951Z,8.40
2023-02-13T22:36:49.507Z,7.50
2023-02-13T22:39:18.223Z,7.60
2023-02-13T22:41:47.105Z,7.40
2023-02-13T22:44:15.997Z,7.60
2023-02-13T22:46:45.590Z,7.10
2023-02-13T22:49:14.170Z,7.40
2023-02-13T22:51:43.222Z,7.20
2023-02-13T22:54:11.947Z,6.80
2023-02-13T22:56:40.417Z,8.00
2023-02-13T22:59:09.358Z,6.20
2023-02-13T23:01:38.584Z,6.30
2023-02-13T23:04:07.357Z,7.40
2023-02-13T23:06:36.069Z,6.90
2023-02-13T23:09:04.613Z,7.10
2023-02-13T23:11:52.563Z,6.10
2023-02-13T23:14:25.649Z,6.80
2023-02-13T23:17:13.178Z,6.60
2023-02-13T23:19:41.711Z,6.40
2023-02-13T23:22:12.711Z,6.30
2023-02-13T23:24:41.181Z,5.90
2023-02-13T23:27:09.682Z,5.30
2023-02-13T23:29:38.136Z,6.40
2023-02-13T23:32:07.124Z,5.80
2023-02-13T23:34:36.963Z,5.70
2023-02-13T23:37:05.611Z,6.30
2023-02-13T23:39:34.074Z,6.30
2023-02-13T23:42:02.886Z,7.00
2023-02-13T23:44:31.944Z,6.00
2023-02-13T23:47:00.631Z,6.00
2023-02-13T23:49:29.306Z,6.00
2023-02-13T23:51:57.899Z,6.10
2023-02-13T23:54:26.685Z,6.00
2023-02-13T23:56:55.781Z,6.00
2023-02-13T23:59:24.864Z,5.90
